sensor_id;sensor_type;location;lat;lon;timestamp;temperature;humidity
17891;DHT22;9071;48.220;14.480;2023-05-10T00:00:13;12.00;99.90
17891;DHT22;9071;48.220;14.480;2023-05-10T00:05:15;11.90;99.90
17891;DHT22;9071;48.220;14.480;2023-05-10T00:10:17;11.90;99.90
17891;DHT22;9071;48.220;14.480;2023-05-10T00:15:21;11.80;99.90
17891;DHT22;9071;48.220;14.480;2023-05-10T00:20:23;11.80;99.90
17891;DHT22;9071;48.220;14.480;2023-05-10T00:25:25;11.70;99.90
17891;DHT22;9071;48.220;14.480;2023-05-10T00:30:28;11.60;99.90
17891;DHT22;9071;48.220;14.480;2023-05-10T00:35:30;11.60;99.90
17891;DHT22;9071;48.220;14.480;2023-05-10T00:40:32;11.50;99.90
17891;DHT22;9071;48.220;14.480;2023-05-10T00:45:36;11.40;99.90
17891;DHT22;9071;48.220;14.480;2023-05-10T00:50:39;11.30;99.90
17891;DHT22;9071;48.220;14.480;2023-05-10T00:55:41;11.30;99.90
17891;DHT22;9071;48.220;14.480;2023-05-10T01:00:46;11.30;99.90
17891;DHT22;9071;48.220;14.480;2023-05-10T01:05:49;11.30;99.90
17891;DHT22;9071;48.220;14.480;2023-05-10T01:10:51;11.30;99.90
17891;DHT22;9071;48.220;14.480;2023-05-10T01:15:54;11.20;99.90
17891;DHT22;9071;48.220;14.480;2023-05-10T01:21:09;11.20;99.90
17891;DHT22;9071;48.220;14.480;2023-05-10T01:26:34;11.10;99.90
17891;DHT22;9071;48.220;14.480;2023-05-10T01:32:07;11.10;99.90
17891;DHT22;9071;48.220;14.480;2023-05-10T01:37:16;11.10;99.90
17891;DHT22;9071;48.220;14.480;2023-05-10T01:42:21;10.80;99.90
17891;DHT22;9071;48.220;14.480;2023-05-10T01:47:32;10.60;99.90
17891;DHT22;9071;48.220;14.480;2023-05-10T01:52:42;10.40;99.90
17891;DHT22;9071;48.220;14.480;2023-05-10T01:57:46;10.00;99.90
17891;DHT22;9071;48.220;14.480;2023-05-10T02:02:52;9.80;99.90
17891;DHT22;9071;48.220;14.480;2023-05-10T02:07:54;9.60;99.90
17891;DHT22;9071;48.220;14.480;2023-05-10T02:12:59;9.50;99.90
17891;DHT22;9071;48.220;14.480;2023-05-10T02:18:03;9.40;99.90
17891;DHT22;9071;48.220;14.480;2023-05-10T02:23:07;9.40;99.90
17891;DHT22;9071;48.220;14.480;2023-05-10T02:28:11;9.30;99.90
17891;DHT22;9071;48.220;14.480;2023-05-10T02:33:15;9.40;99.90
17891;DHT22;9071;48.220;14.480;2023-05-10T02:38:19;9.50;99.90
17891;DHT22;9071;48.220;14.480;2023-05-10T02:43:23;9.60;99.90
17891;DHT22;9071;48.220;14.480;2023-05-10T02:48:27;9.50;99.90
17891;DHT22;9071;48.220;14.480;2023-05-10T02:53:31;9.40;99.90
17891;DHT22;9071;48.220;14.480;2023-05-10T02:58:34;9.40;99.90
17891;DHT22;9071;48.220;14.480;2023-05-10T03:03:38;9.30;99.90
17891;DHT22;9071;48.220;14.480;2023-05-10T03:08:40;9.20;99.90
17891;DHT22;9071;48.220;14.480;2023-05-10T03:13:48;9.20;99.90
17891;DHT22;9071;48.220;14.480;2023-05-10T03:19:01;9.00;99.90
17891;DHT22;9071;48.220;14.480;2023-05-10T03:24:08;8.90;99.90
17891;DHT22;9071;48.220;14.480;2023-05-10T03:29:13;8.90;99.90
17891;DHT22;9071;48.220;14.480;2023-05-10T03:34:17;8.80;99.90
17891;DHT22;9071;48.220;14.480;2023-05-10T03:39:24;8.80;99.90
17891;DHT22;9071;48.220;14.480;2023-05-10T03:44:26;8.80;99.90
17891;DHT22;9071;48.220;14.480;2023-05-10T03:49:30;9.10;99.90
17891;DHT22;9071;48.220;14.480;2023-05-10T03:54:32;9.40;99.90
17891;DHT22;9071;48.220;14.480;2023-05-10T03:59:34;9.70;99.90
17891;DHT22;9071;48.220;14.480;2023-05-10T04:04:38;10.00;99.90
17891;DHT22;9071;48.220;14.480;2023-05-10T04:09:40;10.20;99.90
17891;DHT22;9071;48.220;14.480;2023-05-10T04:14:42;10.30;99.90
17891;DHT22;9071;48.220;14.480;2023-05-10T04:19:46;10.50;99.90
17891;DHT22;9071;48.220;14.480;2023-05-10T04:24:48;10.60;99.90
17891;DHT22;9071;48.220;14.480;2023-05-10T04:29:50;10.70;99.90
17891;DHT22;9071;48.220;14.480;2023-05-10T04:34:53;10.70;99.90
17891;DHT22;9071;48.220;14.480;2023-05-10T04:39:55;10.80;99.90
17891;DHT22;9071;48.220;14.480;2023-05-10T04:44:57;10.90;99.90
17891;DHT22;9071;48.220;14.480;2023-05-10T04:50:01;10.90;99.90
17891;DHT22;9071;48.220;14.480;2023-05-10T04:55:03;11.00;99.90
17891;DHT22;9071;48.220;14.480;2023-05-10T05:00:09;11.10;99.90
17891;DHT22;9071;48.220;14.480;2023-05-10T05:05:12;11.20;99.90
17891;DHT22;9071;48.220;14.480;2023-05-10T05:10:15;11.30;99.90
17891;DHT22;9071;48.220;14.480;2023-05-10T05:15:17;11.30;99.90
17891;DHT22;9071;48.220;14.480;2023-05-10T05:20:21;11.40;99.90
17891;DHT22;9071;48.220;14.480;2023-05-10T05:25:23;11.50;99.90
17891;DHT22;9071;48.220;14.480;2023-05-10T05:30:25;11.70;99.90
17891;DHT22;9071;48.220;14.480;2023-05-10T05:35:28;11.70;99.90
17891;DHT22;9071;48.220;14.480;2023-05-10T05:40:31;11.80;99.90
17891;DHT22;9071;48.220;14.480;2023-05-10T05:45:33;11.90;99.90
17891;DHT22;9071;48.220;14.480;2023-05-10T05:50:36;12.00;99.90
17891;DHT22;9071;48.220;14.480;2023-05-10T05:55:38;12.00;99.90
17891;DHT22;9071;48.220;14.480;2023-05-10T06:00:40;12.10;99.90
17891;DHT22;9071;48.220;14.480;2023-05-10T06:05:44;12.10;99.90
17891;DHT22;9071;48.220;14.480;2023-05-10T06:10:46;12.20;99.90
17891;DHT22;9071;48.220;14.480;2023-05-10T06:15:48;12.30;99.90
17891;DHT22;9071;48.220;14.480;2023-05-10T06:20:52;12.30;99.90
17891;DHT22;9071;48.220;14.480;2023-05-10T06:25:54;12.30;99.90
17891;DHT22;9071;48.220;14.480;2023-05-10T06:30:56;12.30;99.90
17891;DHT22;9071;48.220;14.480;2023-05-10T06:35:59;12.40;99.90
17891;DHT22;9071;48.220;14.480;2023-05-10T06:41:01;12.50;99.90
17891;DHT22;9071;48.220;14.480;2023-05-10T06:46:03;12.50;99.90
17891;DHT22;9071;48.220;14.480;2023-05-10T06:51:07;12.50;99.90
17891;DHT22;9071;48.220;14.480;2023-05-10T06:56:09;12.40;99.90
17891;DHT22;9071;48.220;14.480;2023-05-10T07:01:11;12.40;99.90
17891;DHT22;9071;48.220;14.480;2023-05-10T07:06:15;12.50;99.90
17891;DHT22;9071;48.220;14.480;2023-05-10T07:11:17;12.50;99.90
17891;DHT22;9071;48.220;14.480;2023-05-10T07:16:19;12.50;99.90
17891;DHT22;9071;48.220;14.480;2023-05-10T07:21:23;12.40;99.90
17891;DHT22;9071;48.220;14.480;2023-05-10T07:26:25;12.40;99.90
17891;DHT22;9071;48.220;14.480;2023-05-10T07:31:27;12.30;99.90
17891;DHT22;9071;48.220;14.480;2023-05-10T07:36:31;12.20;99.90
17891;DHT22;9071;48.220;14.480;2023-05-10T07:41:33;12.20;99.90
17891;DHT22;9071;48.220;14.480;2023-05-10T07:46:35;12.20;99.90
17891;DHT22;9071;48.220;14.480;2023-05-10T07:51:39;12.20;99.90
17891;DHT22;9071;48.220;14.480;2023-05-10T07:56:41;12.10;99.90
17891;DHT22;9071;48.220;14.480;2023-05-10T08:01:46;12.10;99.90
17891;DHT22;9071;48.220;14.480;2023-05-10T08:06:49;12.20;99.90
17891;DHT22;9071;48.220;14.480;2023-05-10T08:11:51;12.30;99.90
17891;DHT22;9071;48.220;14.480;2023-05-10T08:16:53;12.20;99.90
17891;DHT22;9071;48.220;14.480;2023-05-10T08:21:57;12.50;99.90
17891;DHT22;9071;48.220;14.480;2023-05-10T08:26:59;12.80;99.90
17891;DHT22;9071;48.220;14.480;2023-05-10T08:32:01;12.90;99.90
17891;DHT22;9071;48.220;14.480;2023-05-10T08:37:07;12.50;99.90
17891;DHT22;9071;48.220;14.480;2023-05-10T08:42:09;12.10;99.90
17891;DHT22;9071;48.220;14.480;2023-05-10T08:47:11;11.90;99.90
17891;DHT22;9071;48.220;14.480;2023-05-10T08:52:17;11.90;99.90
17891;DHT22;9071;48.220;14.480;2023-05-10T08:57:19;12.10;99.90
17891;DHT22;9071;48.220;14.480;2023-05-10T09:02:23;12.30;99.90
17891;DHT22;9071;48.220;14.480;2023-05-10T09:07:27;12.40;99.90
17891;DHT22;9071;48.220;14.480;2023-05-10T09:12:29;12.50;99.90
17891;DHT22;9071;48.220;14.480;2023-05-10T09:17:31;12.70;99.90
17891;DHT22;9071;48.220;14.480;2023-05-10T09:22:35;12.80;99.90
17891;DHT22;9071;48.220;14.480;2023-05-10T09:27:39;12.90;99.90
17891;DHT22;9071;48.220;14.480;2023-05-10T09:32:42;12.90;99.90
17891;DHT22;9071;48.220;14.480;2023-05-10T09:37:48;13.00;99.90
17891;DHT22;9071;48.220;14.480;2023-05-10T09:42:52;13.00;99.90
17891;DHT22;9071;48.220;14.480;2023-05-10T09:47:56;13.10;99.90
17891;DHT22;9071;48.220;14.480;2023-05-10T09:53:01;13.10;99.90
17891;DHT22;9071;48.220;14.480;2023-05-10T09:58:04;13.30;99.90
17891;DHT22;9071;48.220;14.480;2023-05-10T10:03:13;13.50;99.90
17891;DHT22;9071;48.220;14.480;2023-05-10T10:08:17;13.70;99.90
17891;DHT22;9071;48.220;14.480;2023-05-10T10:13:19;13.70;99.90
17891;DHT22;9071;48.220;14.480;2023-05-10T10:18:21;13.70;99.90
17891;DHT22;9071;48.220;14.480;2023-05-10T10:23:28;13.70;99.90
17891;DHT22;9071;48.220;14.480;2023-05-10T10:28:38;13.90;99.90
17891;DHT22;9071;48.220;14.480;2023-05-10T10:33:55;14.10;99.90
17891;DHT22;9071;48.220;14.480;2023-05-10T10:39:00;14.20;99.90
17891;DHT22;9071;48.220;14.480;2023-05-10T10:44:22;14.40;99.90
17891;DHT22;9071;48.220;14.480;2023-05-10T10:49:25;14.40;99.90
17891;DHT22;9071;48.220;14.480;2023-05-10T10:54:29;14.10;99.90
17891;DHT22;9071;48.220;14.480;2023-05-10T10:59:31;14.20;99.90
17891;DHT22;9071;48.220;14.480;2023-05-10T11:04:41;14.40;99.90
17891;DHT22;9071;48.220;14.480;2023-05-10T11:09:48;14.70;99.90
17891;DHT22;9071;48.220;14.480;2023-05-10T11:14:50;14.60;99.90
17891;DHT22;9071;48.220;14.480;2023-05-10T11:20:08;14.80;99.90
17891;DHT22;9071;48.220;14.480;2023-05-10T11:25:12;14.80;99.90
17891;DHT22;9071;48.220;14.480;2023-05-10T11:30:14;14.70;99.90
17891;DHT22;9071;48.220;14.480;2023-05-10T11:35:16;14.90;99.90
17891;DHT22;9071;48.220;14.480;2023-05-10T11:40:21;15.00;99.90
17891;DHT22;9071;48.220;14.480;2023-05-10T11:45:25;15.00;99.90
17891;DHT22;9071;48.220;14.480;2023-05-10T11:50:28;15.10;99.90
17891;DHT22;9071;48.220;14.480;2023-05-10T11:55:34;15.10;99.90
17891;DHT22;9071;48.220;14.480;2023-05-10T12:00:37;15.00;99.90
17891;DHT22;9071;48.220;14.480;2023-05-10T12:05:39;14.80;99.90
17891;DHT22;9071;48.220;14.480;2023-05-10T12:10:43;14.80;99.90
17891;DHT22;9071;48.220;14.480;2023-05-10T12:15:46;14.90;99.90
17891;DHT22;9071;48.220;14.480;2023-05-10T12:20:48;15.10;99.90
17891;DHT22;9071;48.220;14.480;2023-05-10T12:26:01;15.20;99.90
17891;DHT22;9071;48.220;14.480;2023-05-10T12:31:04;15.30;99.90
17891;DHT22;9071;48.220;14.480;2023-05-10T12:36:08;15.40;99.90
17891;DHT22;9071;48.220;14.480;2023-05-10T12:41:12;15.60;99.90
17891;DHT22;9071;48.220;14.480;2023-05-10T12:46:16;15.60;99.90
17891;DHT22;9071;48.220;14.480;2023-05-10T12:51:19;15.50;99.90
17891;DHT22;9071;48.220;14.480;2023-05-10T12:56:24;15.60;99.90
17891;DHT22;9071;48.220;14.480;2023-05-10T13:01:26;15.70;99.90
17891;DHT22;9071;48.220;14.480;2023-05-10T13:06:28;15.90;99.90
17891;DHT22;9071;48.220;14.480;2023-05-10T13:11:32;16.00;99.90
17891;DHT22;9071;48.220;14.480;2023-05-10T13:16:35;16.30;99.90
17891;DHT22;9071;48.220;14.480;2023-05-10T13:21:48;16.40;99.90
17891;DHT22;9071;48.220;14.480;2023-05-10T13:26:50;16.40;99.90
17891;DHT22;9071;48.220;14.480;2023-05-10T13:31:52;16.30;99.90
17891;DHT22;9071;48.220;14.480;2023-05-10T13:36:55;16.00;99.90
17891;DHT22;9071;48.220;14.480;2023-05-10T13:41:57;16.00;99.90
17891;DHT22;9071;48.220;14.480;2023-05-10T13:46:59;15.90;99.90
17891;DHT22;9071;48.220;14.480;2023-05-10T13:52:03;15.80;99.90
17891;DHT22;9071;48.220;14.480;2023-05-10T13:57:07;15.70;99.90
17891;DHT22;9071;48.220;14.480;2023-05-10T14:02:09;15.70;99.90
17891;DHT22;9071;48.220;14.480;2023-05-10T14:07:14;15.80;99.90
17891;DHT22;9071;48.220;14.480;2023-05-10T14:12:16;15.70;99.90
17891;DHT22;9071;48.220;14.480;2023-05-10T14:17:18;15.60;99.90
17891;DHT22;9071;48.220;14.480;2023-05-10T14:22:22;15.60;99.90
17891;DHT22;9071;48.220;14.480;2023-05-10T14:27:24;15.70;99.90
17891;DHT22;9071;48.220;14.480;2023-05-10T14:32:26;15.80;99.90
17891;DHT22;9071;48.220;14.480;2023-05-10T14:37:30;16.00;99.90
17891;DHT22;9071;48.220;14.480;2023-05-10T14:42:33;16.30;99.90
17891;DHT22;9071;48.220;14.480;2023-05-10T14:47:35;16.40;99.90
17891;DHT22;9071;48.220;14.480;2023-05-10T14:52:39;16.40;99.90
17891;DHT22;9071;48.220;14.480;2023-05-10T14:57:41;16.40;99.90
17891;DHT22;9071;48.220;14.480;2023-05-10T15:02:44;16.50;99.90
17891;DHT22;9071;48.220;14.480;2023-05-10T15:07:48;16.50;99.90
17891;DHT22;9071;48.220;14.480;2023-05-10T15:12:50;16.40;99.90
17891;DHT22;9071;48.220;14.480;2023-05-10T15:17:52;16.40;99.90
17891;DHT22;9071;48.220;14.480;2023-05-10T15:22:55;16.30;99.90
17891;DHT22;9071;48.220;14.480;2023-05-10T15:27:57;16.30;99.90
17891;DHT22;9071;48.220;14.480;2023-05-10T15:32:59;16.30;99.90
17891;DHT22;9071;48.220;14.480;2023-05-10T15:38:03;16.30;99.90
17891;DHT22;9071;48.220;14.480;2023-05-10T15:43:06;16.30;99.90
17891;DHT22;9071;48.220;14.480;2023-05-10T15:48:09;16.30;99.90
17891;DHT22;9071;48.220;14.480;2023-05-10T15:53:12;16.20;99.90
17891;DHT22;9071;48.220;14.480;2023-05-10T15:58:14;16.30;99.90
17891;DHT22;9071;48.220;14.480;2023-05-10T16:03:16;16.30;99.90
17891;DHT22;9071;48.220;14.480;2023-05-10T16:08:20;16.30;99.90
17891;DHT22;9071;48.220;14.480;2023-05-10T16:13:22;16.30;99.90
17891;DHT22;9071;48.220;14.480;2023-05-10T16:18:24;16.20;99.90
17891;DHT22;9071;48.220;14.480;2023-05-10T16:23:28;16.20;99.90
17891;DHT22;9071;48.220;14.480;2023-05-10T16:28:30;16.10;99.90
17891;DHT22;9071;48.220;14.480;2023-05-10T16:33:32;16.00;99.90
17891;DHT22;9071;48.220;14.480;2023-05-10T16:38:36;15.90;99.90
17891;DHT22;9071;48.220;14.480;2023-05-10T16:43:38;15.80;99.90
17891;DHT22;9071;48.220;14.480;2023-05-10T16:48:40;15.80;99.90
17891;DHT22;9071;48.220;14.480;2023-05-10T16:53:44;15.70;99.90
17891;DHT22;9071;48.220;14.480;2023-05-10T16:58:46;15.60;99.90
17891;DHT22;9071;48.220;14.480;2023-05-10T17:03:49;15.50;99.90
17891;DHT22;9071;48.220;14.480;2023-05-10T17:08:52;15.40;99.90
17891;DHT22;9071;48.220;14.480;2023-05-10T17:13:55;15.30;99.90
17891;DHT22;9071;48.220;14.480;2023-05-10T17:18:57;15.30;99.90
17891;DHT22;9071;48.220;14.480;2023-05-10T17:24:00;15.20;99.90
17891;DHT22;9071;48.220;14.480;2023-05-10T17:29:02;15.20;99.90
17891;DHT22;9071;48.220;14.480;2023-05-10T17:34:05;15.20;99.90
17891;DHT22;9071;48.220;14.480;2023-05-10T17:39:08;15.20;99.90
17891;DHT22;9071;48.220;14.480;2023-05-10T17:44:10;15.10;99.90
17891;DHT22;9071;48.220;14.480;2023-05-10T17:49:13;15.10;99.90
17891;DHT22;9071;48.220;14.480;2023-05-10T17:54:17;15.00;99.90
17891;DHT22;9071;48.220;14.480;2023-05-10T17:59:19;15.00;99.90
17891;DHT22;9071;48.220;14.480;2023-05-10T18:04:21;14.90;99.90
17891;DHT22;9071;48.220;14.480;2023-05-10T18:09:25;14.90;99.90
17891;DHT22;9071;48.220;14.480;2023-05-10T18:14:27;14.90;99.90
17891;DHT22;9071;48.220;14.480;2023-05-10T18:19:29;14.90;99.90
17891;DHT22;9071;48.220;14.480;2023-05-10T18:24:33;14.80;99.90
17891;DHT22;9071;48.220;14.480;2023-05-10T18:29:35;14.70;99.90
17891;DHT22;9071;48.220;14.480;2023-05-10T18:34:37;14.60;99.90
17891;DHT22;9071;48.220;14.480;2023-05-10T18:39:41;14.50;99.90
17891;DHT22;9071;48.220;14.480;2023-05-10T18:44:43;14.50;99.90
17891;DHT22;9071;48.220;14.480;2023-05-10T18:49:45;14.40;99.90
17891;DHT22;9071;48.220;14.480;2023-05-10T18:54:49;14.40;99.90
17891;DHT22;9071;48.220;14.480;2023-05-10T18:59:52;14.40;99.90
17891;DHT22;9071;48.220;14.480;2023-05-10T19:04:54;14.30;99.90
17891;DHT22;9071;48.220;14.480;2023-05-10T19:10:00;14.30;99.90
17891;DHT22;9071;48.220;14.480;2023-05-10T19:15:03;14.30;99.90
17891;DHT22;9071;48.220;14.480;2023-05-10T19:20:10;14.20;99.90
17891;DHT22;9071;48.220;14.480;2023-05-10T19:25:14;14.20;99.90
17891;DHT22;9071;48.220;14.480;2023-05-10T19:30:17;14.20;99.90
17891;DHT22;9071;48.220;14.480;2023-05-10T19:35:19;14.20;99.90
17891;DHT22;9071;48.220;14.480;2023-05-10T19:40:22;14.20;99.90
17891;DHT22;9071;48.220;14.480;2023-05-10T19:45:24;14.20;99.90
17891;DHT22;9071;48.220;14.480;2023-05-10T19:50:27;14.20;99.90
17891;DHT22;9071;48.220;14.480;2023-05-10T19:55:31;14.20;99.90
17891;DHT22;9071;48.220;14.480;2023-05-10T20:00:35;14.20;99.90
17891;DHT22;9071;48.220;14.480;2023-05-10T20:05:37;14.10;99.90
17891;DHT22;9071;48.220;14.480;2023-05-10T20:10:41;14.10;99.90
17891;DHT22;9071;48.220;14.480;2023-05-10T20:15:44;14.00;99.90
17891;DHT22;9071;48.220;14.480;2023-05-10T20:20:46;13.90;99.90
17891;DHT22;9071;48.220;14.480;2023-05-10T20:25:49;13.80;99.90
17891;DHT22;9071;48.220;14.480;2023-05-10T20:30:53;13.80;99.90
17891;DHT22;9071;48.220;14.480;2023-05-10T20:35:55;13.70;99.90
17891;DHT22;9071;48.220;14.480;2023-05-10T20:40:58;13.70;99.90
17891;DHT22;9071;48.220;14.480;2023-05-10T20:46:01;13.60;99.90
17891;DHT22;9071;48.220;14.480;2023-05-10T20:51:05;13.60;99.90
17891;DHT22;9071;48.220;14.480;2023-05-10T20:56:08;13.50;99.90
17891;DHT22;9071;48.220;14.480;2023-05-10T21:01:10;13.50;99.90
17891;DHT22;9071;48.220;14.480;2023-05-10T21:06:12;13.50;99.90
17891;DHT22;9071;48.220;14.480;2023-05-10T21:11:16;13.50;99.90
17891;DHT22;9071;48.220;14.480;2023-05-10T21:16:18;13.40;99.90
17891;DHT22;9071;48.220;14.480;2023-05-10T21:21:20;13.40;99.90
17891;DHT22;9071;48.220;14.480;2023-05-10T21:26:24;13.40;99.90
17891;DHT22;9071;48.220;14.480;2023-05-10T21:31:26;13.40;99.90
17891;DHT22;9071;48.220;14.480;2023-05-10T21:36:28;13.40;99.90
17891;DHT22;9071;48.220;14.480;2023-05-10T21:41:31;13.40;99.90
17891;DHT22;9071;48.220;14.480;2023-05-10T21:46:33;13.40;99.90
17891;DHT22;9071;48.220;14.480;2023-05-10T21:51:35;13.30;99.90
17891;DHT22;9071;48.220;14.480;2023-05-10T21:56:38;13.30;99.90
17891;DHT22;9071;48.220;14.480;2023-05-10T22:01:41;13.30;99.90
17891;DHT22;9071;48.220;14.480;2023-05-10T22:06:43;13.30;99.90
17891;DHT22;9071;48.220;14.480;2023-05-10T22:11:47;13.20;99.90
17891;DHT22;9071;48.220;14.480;2023-05-10T22:16:49;13.20;99.90
17891;DHT22;9071;48.220;14.480;2023-05-10T22:21:51;13.10;99.90
17891;DHT22;9071;48.220;14.480;2023-05-10T22:26:55;13.10;99.90
17891;DHT22;9071;48.220;14.480;2023-05-10T22:31:57;13.00;99.90
17891;DHT22;9071;48.220;14.480;2023-05-10T22:36:59;12.90;99.90
17891;DHT22;9071;48.220;14.480;2023-05-10T22:42:03;13.00;99.90
17891;DHT22;9071;48.220;14.480;2023-05-10T22:47:05;13.00;99.90
17891;DHT22;9071;48.220;14.480;2023-05-10T22:52:08;13.00;99.90
17891;DHT22;9071;48.220;14.480;2023-05-10T22:57:12;13.00;99.90
17891;DHT22;9071;48.220;14.480;2023-05-10T23:02:14;13.00;99.90
17891;DHT22;9071;48.220;14.480;2023-05-10T23:07:16;13.00;99.90
17891;DHT22;9071;48.220;14.480;2023-05-10T23:12:20;13.00;99.90
17891;DHT22;9071;48.220;14.480;2023-05-10T23:17:22;13.00;99.90
17891;DHT22;9071;48.220;14.480;2023-05-10T23:22:24;12.90;99.90
17891;DHT22;9071;48.220;14.480;2023-05-10T23:27:29;12.90;99.90
17891;DHT22;9071;48.220;14.480;2023-05-10T23:32:31;12.90;99.90
17891;DHT22;9071;48.220;14.480;2023-05-10T23:37:33;13.00;99.90
17891;DHT22;9071;48.220;14.480;2023-05-10T23:42:37;13.00;99.90
17891;DHT22;9071;48.220;14.480;2023-05-10T23:47:39;13.00;99.90
17891;DHT22;9071;48.220;14.480;2023-05-10T23:52:50;13.00;99.90
17891;DHT22;9071;48.220;14.480;2023-05-10T23:57:53;13.00;99.90
